sensor_id;sensor_type;location;lat;lon;timestamp;temperature;humidity
15072;DHT22;7635;56.696;13.002;2023-04-03T00:21:38;-0.60;99.90
15072;DHT22;7635;56.696;13.002;2023-04-03T00:24:05;-0.60;99.90
15072;DHT22;7635;56.696;13.002;2023-04-03T00:26:32;-0.60;99.90
15072;DHT22;7635;56.696;13.002;2023-04-03T00:28:59;-0.70;99.90
15072;DHT22;7635;56.696;13.002;2023-04-03T00:31:26;-0.70;99.90
15072;DHT22;7635;56.696;13.002;2023-04-03T00:33:52;-0.70;99.90
15072;DHT22;7635;56.696;13.002;2023-04-03T00:36:19;-0.80;99.90
15072;DHT22;7635;56.696;13.002;2023-04-03T00:38:47;-0.80;99.90
15072;DHT22;7635;56.696;13.002;2023-04-03T00:41:14;-0.80;99.90
15072;DHT22;7635;56.696;13.002;2023-04-03T00:43:41;-0.80;99.90
15072;DHT22;7635;56.696;13.002;2023-04-03T00:46:07;-0.90;99.90
15072;DHT22;7635;56.696;13.002;2023-04-03T00:48:37;-0.90;99.90
15072;DHT22;7635;56.696;13.002;2023-04-03T00:51:08;-0.90;99.90
15072;DHT22;7635;56.696;13.002;2023-04-03T00:53:39;-0.90;99.90
15072;DHT22;7635;56.696;13.002;2023-04-03T00:56:10;-1.00;99.90
15072;DHT22;7635;56.696;13.002;2023-04-03T00:58:41;-1.00;99.90
15072;DHT22;7635;56.696;13.002;2023-04-03T01:01:12;-1.00;99.90
15072;DHT22;7635;56.696;13.002;2023-04-03T01:03:40;-1.00;99.90
15072;DHT22;7635;56.696;13.002;2023-04-03T01:06:07;-1.00;99.90
15072;DHT22;7635;56.696;13.002;2023-04-03T01:08:34;-1.00;99.90
15072;DHT22;7635;56.696;13.002;2023-04-03T01:11:01;-1.10;99.90
15072;DHT22;7635;56.696;13.002;2023-04-03T01:13:32;-1.10;99.90
15072;DHT22;7635;56.696;13.002;2023-04-03T01:16:01;-1.10;99.90
15072;DHT22;7635;56.696;13.002;2023-04-03T01:18:28;-1.10;99.90
15072;DHT22;7635;56.696;13.002;2023-04-03T01:21:30;-1.20;99.90
15072;DHT22;7635;56.696;13.002;2023-04-03T01:24:15;-1.20;99.90
15072;DHT22;7635;56.696;13.002;2023-04-03T01:26:43;-1.20;99.90
15072;DHT22;7635;56.696;13.002;2023-04-03T01:29:12;-1.20;99.90
15072;DHT22;7635;56.696;13.002;2023-04-03T01:31:49;-1.20;99.90
15072;DHT22;7635;56.696;13.002;2023-04-03T01:34:15;-1.30;99.90
15072;DHT22;7635;56.696;13.002;2023-04-03T01:36:42;-1.30;99.90
15072;DHT22;7635;56.696;13.002;2023-04-03T01:39:09;-1.40;99.90
15072;DHT22;7635;56.696;13.002;2023-04-03T01:41:36;-1.40;99.90
15072;DHT22;7635;56.696;13.002;2023-04-03T01:44:03;-1.40;99.90
15072;DHT22;7635;56.696;13.002;2023-04-03T01:46:30;-1.50;99.90
15072;DHT22;7635;56.696;13.002;2023-04-03T01:48:59;-1.50;99.90
15072;DHT22;7635;56.696;13.002;2023-04-03T01:51:25;-1.50;99.90
15072;DHT22;7635;56.696;13.002;2023-04-03T01:53:52;-1.50;99.90
15072;DHT22;7635;56.696;13.002;2023-04-03T01:56:19;-1.50;99.90
15072;DHT22;7635;56.696;13.002;2023-04-03T01:58:46;-1.50;99.90
15072;DHT22;7635;56.696;13.002;2023-04-03T02:01:13;-1.50;99.90
15072;DHT22;7635;56.696;13.002;2023-04-03T02:03:40;-1.50;99.90
15072;DHT22;7635;56.696;13.002;2023-04-03T02:06:09;-1.50;99.90
15072;DHT22;7635;56.696;13.002;2023-04-03T02:08:36;-1.60;99.90
15072;DHT22;7635;56.696;13.002;2023-04-03T02:11:03;-1.60;99.90
15072;DHT22;7635;56.696;13.002;2023-04-03T02:13:29;-1.70;99.90
15072;DHT22;7635;56.696;13.002;2023-04-03T02:15:56;-1.70;99.90
15072;DHT22;7635;56.696;13.002;2023-04-03T02:18:24;-1.80;99.90
15072;DHT22;7635;56.696;13.002;2023-04-03T02:20:51;-1.80;99.90
15072;DHT22;7635;56.696;13.002;2023-04-03T02:23:19;-1.80;99.90
15072;DHT22;7635;56.696;13.002;2023-04-03T02:25:46;-1.80;99.90
15072;DHT22;7635;56.696;13.002;2023-04-03T02:28:14;-1.70;99.90
15072;DHT22;7635;56.696;13.002;2023-04-03T02:30:41;-1.70;99.90
15072;DHT22;7635;56.696;13.002;2023-04-03T02:33:08;-1.80;99.90
15072;DHT22;7635;56.696;13.002;2023-04-03T02:35:34;-1.80;99.90
15072;DHT22;7635;56.696;13.002;2023-04-03T02:38:02;-1.80;99.90
15072;DHT22;7635;56.696;13.002;2023-04-03T02:40:30;-1.80;99.90
15072;DHT22;7635;56.696;13.002;2023-04-03T02:42:57;-1.80;99.90
15072;DHT22;7635;56.696;13.002;2023-04-03T02:45:24;-1.80;99.90
15072;DHT22;7635;56.696;13.002;2023-04-03T02:47:51;-1.80;99.90
15072;DHT22;7635;56.696;13.002;2023-04-03T02:50:18;-1.80;99.90
15072;DHT22;7635;56.696;13.002;2023-04-03T02:52:45;-1.90;99.90
15072;DHT22;7635;56.696;13.002;2023-04-03T02:55:13;-1.90;99.90
15072;DHT22;7635;56.696;13.002;2023-04-03T02:57:42;-1.90;99.90
15072;DHT22;7635;56.696;13.002;2023-04-03T03:00:10;-2.00;99.90
15072;DHT22;7635;56.696;13.002;2023-04-03T03:02:36;-2.00;99.90
15072;DHT22;7635;56.696;13.002;2023-04-03T03:05:04;-2.00;99.90
15072;DHT22;7635;56.696;13.002;2023-04-03T03:07:31;-2.10;99.90
15072;DHT22;7635;56.696;13.002;2023-04-03T03:09:57;-2.10;99.90
15072;DHT22;7635;56.696;13.002;2023-04-03T03:12:24;-2.20;99.90
15072;DHT22;7635;56.696;13.002;2023-04-03T03:14:52;-2.20;99.90
15072;DHT22;7635;56.696;13.002;2023-04-03T03:17:19;-2.30;99.90
15072;DHT22;7635;56.696;13.002;2023-04-03T03:19:46;-2.30;99.90
15072;DHT22;7635;56.696;13.002;2023-04-03T03:22:12;-2.30;99.90
15072;DHT22;7635;56.696;13.002;2023-04-03T03:24:39;-2.40;99.90
15072;DHT22;7635;56.696;13.002;2023-04-03T03:27:06;-2.40;99.90
15072;DHT22;7635;56.696;13.002;2023-04-03T03:29:33;-2.50;99.90
15072;DHT22;7635;56.696;13.002;2023-04-03T03:32:01;-2.50;99.90
15072;DHT22;7635;56.696;13.002;2023-04-03T03:34:27;-2.50;99.90
15072;DHT22;7635;56.696;13.002;2023-04-03T03:36:54;-2.50;99.90
15072;DHT22;7635;56.696;13.002;2023-04-03T03:39:21;-2.50;99.90
15072;DHT22;7635;56.696;13.002;2023-04-03T03:41:48;-2.50;99.90
15072;DHT22;7635;56.696;13.002;2023-04-03T03:44:16;-2.50;99.90
15072;DHT22;7635;56.696;13.002;2023-04-03T03:46:42;-2.50;99.90
15072;DHT22;7635;56.696;13.002;2023-04-03T03:49:11;-2.50;99.90
15072;DHT22;7635;56.696;13.002;2023-04-03T03:51:38;-2.60;99.90
15072;DHT22;7635;56.696;13.002;2023-04-03T03:54:06;-2.60;99.90
15072;DHT22;7635;56.696;13.002;2023-04-03T03:56:33;-2.60;99.90
15072;DHT22;7635;56.696;13.002;2023-04-03T03:59:00;-2.60;99.90
15072;DHT22;7635;56.696;13.002;2023-04-03T04:01:27;-2.70;99.90
15072;DHT22;7635;56.696;13.002;2023-04-03T04:03:53;-2.70;99.90
15072;DHT22;7635;56.696;13.002;2023-04-03T04:06:22;-2.70;99.90
15072;DHT22;7635;56.696;13.002;2023-04-03T04:08:49;-2.70;99.90
15072;DHT22;7635;56.696;13.002;2023-04-03T04:11:16;-2.70;99.90
15072;DHT22;7635;56.696;13.002;2023-04-03T04:13:43;-2.70;99.90
15072;DHT22;7635;56.696;13.002;2023-04-03T04:16:10;-2.70;99.90
15072;DHT22;7635;56.696;13.002;2023-04-03T04:18:36;-2.70;99.90
15072;DHT22;7635;56.696;13.002;2023-04-03T04:21:03;-2.70;99.90
15072;DHT22;7635;56.696;13.002;2023-04-03T04:23:31;-2.70;99.90
15072;DHT22;7635;56.696;13.002;2023-04-03T04:25:58;-2.70;99.90
15072;DHT22;7635;56.696;13.002;2023-04-03T04:28:25;-2.70;99.90
15072;DHT22;7635;56.696;13.002;2023-04-03T04:30:51;-2.60;99.90
15072;DHT22;7635;56.696;13.002;2023-04-03T04:33:18;-2.60;99.90
15072;DHT22;7635;56.696;13.002;2023-04-03T04:35:47;-2.60;99.90
15072;DHT22;7635;56.696;13.002;2023-04-03T04:38:14;-2.60;99.90
15072;DHT22;7635;56.696;13.002;2023-04-03T04:40:42;-2.50;99.90
15072;DHT22;7635;56.696;13.002;2023-04-03T04:43:09;-2.40;99.90
15072;DHT22;7635;56.696;13.002;2023-04-03T04:45:36;-2.40;99.90
15072;DHT22;7635;56.696;13.002;2023-04-03T04:48:03;-2.40;99.90
15072;DHT22;7635;56.696;13.002;2023-04-03T04:50:30;-2.30;99.90
15072;DHT22;7635;56.696;13.002;2023-04-03T04:52:56;-2.30;99.90
15072;DHT22;7635;56.696;13.002;2023-04-03T04:55:23;-2.30;99.90
15072;DHT22;7635;56.696;13.002;2023-04-03T04:57:51;-2.30;99.90
15072;DHT22;7635;56.696;13.002;2023-04-03T05:00:19;-2.30;99.90
15072;DHT22;7635;56.696;13.002;2023-04-03T05:02:46;-2.20;99.90
15072;DHT22;7635;56.696;13.002;2023-04-03T05:05:12;-2.20;99.90
15072;DHT22;7635;56.696;13.002;2023-04-03T05:07:39;-2.20;99.90
15072;DHT22;7635;56.696;13.002;2023-04-03T05:10:08;-2.10;99.90
15072;DHT22;7635;56.696;13.002;2023-04-03T05:12:35;-2.10;99.90
15072;DHT22;7635;56.696;13.002;2023-04-03T05:15:04;-2.10;99.90
15072;DHT22;7635;56.696;13.002;2023-04-03T05:17:31;-2.20;99.90
15072;DHT22;7635;56.696;13.002;2023-04-03T05:19:57;-2.10;99.90
15072;DHT22;7635;56.696;13.002;2023-04-03T05:22:24;-2.10;99.90
15072;DHT22;7635;56.696;13.002;2023-04-03T05:24:51;-2.10;99.90
15072;DHT22;7635;56.696;13.002;2023-04-03T05:27:17;-2.10;99.90
15072;DHT22;7635;56.696;13.002;2023-04-03T05:29:44;-2.10;99.90
15072;DHT22;7635;56.696;13.002;2023-04-03T05:32:13;-2.10;99.90
15072;DHT22;7635;56.696;13.002;2023-04-03T05:34:39;-2.10;99.90
15072;DHT22;7635;56.696;13.002;2023-04-03T05:37:06;-2.10;99.90
15072;DHT22;7635;56.696;13.002;2023-04-03T05:39:33;-2.10;99.90
15072;DHT22;7635;56.696;13.002;2023-04-03T05:42:00;-2.10;99.90
15072;DHT22;7635;56.696;13.002;2023-04-03T05:44:27;-2.10;99.90
15072;DHT22;7635;56.696;13.002;2023-04-03T05:46:53;-2.10;99.90
15072;DHT22;7635;56.696;13.002;2023-04-03T05:49:21;-2.20;99.90
15072;DHT22;7635;56.696;13.002;2023-04-03T05:51:48;-2.20;99.90
15072;DHT22;7635;56.696;13.002;2023-04-03T05:54:18;-2.20;99.90
15072;DHT22;7635;56.696;13.002;2023-04-03T05:56:46;-2.20;99.90
15072;DHT22;7635;56.696;13.002;2023-04-03T05:59:13;-2.10;99.90
15072;DHT22;7635;56.696;13.002;2023-04-03T06:01:40;-2.10;99.90
15072;DHT22;7635;56.696;13.002;2023-04-03T06:04:07;-1.90;99.90
15072;DHT22;7635;56.696;13.002;2023-04-03T06:06:49;-1.80;99.90
15072;DHT22;7635;56.696;13.002;2023-04-03T06:09:19;-1.50;99.90
15072;DHT22;7635;56.696;13.002;2023-04-03T06:11:46;-1.40;99.90
15072;DHT22;7635;56.696;13.002;2023-04-03T06:14:13;-1.20;99.90
15072;DHT22;7635;56.696;13.002;2023-04-03T06:16:40;-1.10;99.90
15072;DHT22;7635;56.696;13.002;2023-04-03T06:19:08;-0.90;99.90
15072;DHT22;7635;56.696;13.002;2023-04-03T06:21:35;-0.80;99.90
15072;DHT22;7635;56.696;13.002;2023-04-03T06:24:04;-0.70;99.90
15072;DHT22;7635;56.696;13.002;2023-04-03T06:26:31;-0.60;99.90
15072;DHT22;7635;56.696;13.002;2023-04-03T06:28:58;-0.40;99.90
15072;DHT22;7635;56.696;13.002;2023-04-03T06:31:25;-0.30;99.90
15072;DHT22;7635;56.696;13.002;2023-04-03T06:33:52;-0.20;99.90
15072;DHT22;7635;56.696;13.002;2023-04-03T06:36:20;0.00;99.90
15072;DHT22;7635;56.696;13.002;2023-04-03T06:38:47;0.20;99.90
15072;DHT22;7635;56.696;13.002;2023-04-03T06:41:16;0.40;99.90
15072;DHT22;7635;56.696;13.002;2023-04-03T06:43:42;0.70;99.90
15072;DHT22;7635;56.696;13.002;2023-04-03T06:46:13;1.10;99.90
15072;DHT22;7635;56.696;13.002;2023-04-03T06:48:40;1.50;99.90
15072;DHT22;7635;56.696;13.002;2023-04-03T06:51:08;1.90;99.90
15072;DHT22;7635;56.696;13.002;2023-04-03T06:53:35;2.40;99.90
15072;DHT22;7635;56.696;13.002;2023-04-03T06:56:01;2.80;99.90
15072;DHT22;7635;56.696;13.002;2023-04-03T06:58:29;3.20;99.90
15072;DHT22;7635;56.696;13.002;2023-04-03T07:00:56;3.70;99.90
15072;DHT22;7635;56.696;13.002;2023-04-03T07:03:23;4.00;99.90
15072;DHT22;7635;56.696;13.002;2023-04-03T07:05:50;4.30;99.90
15072;DHT22;7635;56.696;13.002;2023-04-03T07:08:16;4.50;99.90
15072;DHT22;7635;56.696;13.002;2023-04-03T07:10:43;4.80;99.90
15072;DHT22;7635;56.696;13.002;2023-04-03T07:13:10;5.20;99.90
15072;DHT22;7635;56.696;13.002;2023-04-03T07:15:38;5.50;99.90
15072;DHT22;7635;56.696;13.002;2023-04-03T07:18:05;5.60;99.90
15072;DHT22;7635;56.696;13.002;2023-04-03T07:20:32;5.70;99.90
15072;DHT22;7635;56.696;13.002;2023-04-03T07:22:58;6.00;99.90
15072;DHT22;7635;56.696;13.002;2023-04-03T07:25:27;6.40;99.90
15072;DHT22;7635;56.696;13.002;2023-04-03T07:27:54;6.60;99.90
15072;DHT22;7635;56.696;13.002;2023-04-03T07:30:21;6.70;99.90
15072;DHT22;7635;56.696;13.002;2023-04-03T07:32:49;6.90;99.90
15072;DHT22;7635;56.696;13.002;2023-04-03T07:35:17;7.10;99.90
15072;DHT22;7635;56.696;13.002;2023-04-03T07:37:44;7.20;99.90
15072;DHT22;7635;56.696;13.002;2023-04-03T07:40:11;7.50;99.90
15072;DHT22;7635;56.696;13.002;2023-04-03T07:42:38;7.60;99.90
15072;DHT22;7635;56.696;13.002;2023-04-03T07:45:05;7.90;99.90
15072;DHT22;7635;56.696;13.002;2023-04-03T07:47:32;7.70;99.90
15072;DHT22;7635;56.696;13.002;2023-04-03T07:50:00;7.90;99.90
15072;DHT22;7635;56.696;13.002;2023-04-03T07:52:27;8.10;99.90
15072;DHT22;7635;56.696;13.002;2023-04-03T07:54:53;8.30;99.90
15072;DHT22;7635;56.696;13.002;2023-04-03T07:57:20;8.50;99.90
15072;DHT22;7635;56.696;13.002;2023-04-03T07:59:47;8.80;99.90
15072;DHT22;7635;56.696;13.002;2023-04-03T08:02:14;9.20;99.90
15072;DHT22;7635;56.696;13.002;2023-04-03T08:04:40;9.40;99.90
15072;DHT22;7635;56.696;13.002;2023-04-03T08:07:08;9.40;99.80
15072;DHT22;7635;56.696;13.002;2023-04-03T08:09:35;9.50;99.90
15072;DHT22;7635;56.696;13.002;2023-04-03T08:12:02;9.60;99.90
15072;DHT22;7635;56.696;13.002;2023-04-03T08:14:31;9.90;99.90
15072;DHT22;7635;56.696;13.002;2023-04-03T08:17:00;10.10;99.90
15072;DHT22;7635;56.696;13.002;2023-04-03T08:19:28;10.40;99.90
15072;DHT22;7635;56.696;13.002;2023-04-03T08:21:55;10.80;99.90
15072;DHT22;7635;56.696;13.002;2023-04-03T08:24:23;11.00;99.70
15072;DHT22;7635;56.696;13.002;2023-04-03T08:26:50;11.20;98.40
15072;DHT22;7635;56.696;13.002;2023-04-03T08:29:17;11.40;97.80
15072;DHT22;7635;56.696;13.002;2023-04-03T08:31:44;11.70;97.80
15072;DHT22;7635;56.696;13.002;2023-04-03T08:34:11;11.70;96.60
15072;DHT22;7635;56.696;13.002;2023-04-03T08:36:38;12.00;97.10
15072;DHT22;7635;56.696;13.002;2023-04-03T08:39:05;12.00;95.00
15072;DHT22;7635;56.696;13.002;2023-04-03T08:41:36;12.00;95.40
15072;DHT22;7635;56.696;13.002;2023-04-03T08:44:13;12.00;95.00
15072;DHT22;7635;56.696;13.002;2023-04-03T08:46:49;12.00;94.70
15072;DHT22;7635;56.696;13.002;2023-04-03T08:49:24;12.20;93.80
15072;DHT22;7635;56.696;13.002;2023-04-03T08:51:53;12.40;94.40
15072;DHT22;7635;56.696;13.002;2023-04-03T08:54:27;12.60;93.50
15072;DHT22;7635;56.696;13.002;2023-04-03T08:56:57;12.50;93.70
15072;DHT22;7635;56.696;13.002;2023-04-03T08:59:28;12.50;92.90
15072;DHT22;7635;56.696;13.002;2023-04-03T09:01:58;12.60;93.90
15072;DHT22;7635;56.696;13.002;2023-04-03T09:04:28;13.00;93.10
15072;DHT22;7635;56.696;13.002;2023-04-03T09:07:02;13.10;90.80
15072;DHT22;7635;56.696;13.002;2023-04-03T09:09:35;13.40;92.30
15072;DHT22;7635;56.696;13.002;2023-04-03T09:12:15;13.40;91.20
15072;DHT22;7635;56.696;13.002;2023-04-03T09:14:49;13.30;89.20
15072;DHT22;7635;56.696;13.002;2023-04-03T09:17:28;13.10;90.80
15072;DHT22;7635;56.696;13.002;2023-04-03T09:20:09;13.10;90.80
15072;DHT22;7635;56.696;13.002;2023-04-03T09:22:41;13.00;90.50
15072;DHT22;7635;56.696;13.002;2023-04-03T09:25:13;13.00;88.00
15072;DHT22;7635;56.696;13.002;2023-04-03T09:27:42;13.10;88.50
15072;DHT22;7635;56.696;13.002;2023-04-03T09:30:13;13.10;89.90
15072;DHT22;7635;56.696;13.002;2023-04-03T09:32:41;13.10;89.20
15072;DHT22;7635;56.696;13.002;2023-04-03T09:35:18;13.40;91.10
15072;DHT22;7635;56.696;13.002;2023-04-03T09:37:47;13.50;87.50
15072;DHT22;7635;56.696;13.002;2023-04-03T09:40:35;13.70;87.60
15072;DHT22;7635;56.696;13.002;2023-04-03T09:43:21;14.20;91.30
15072;DHT22;7635;56.696;13.002;2023-04-03T09:45:49;14.50;89.00
15072;DHT22;7635;56.696;13.002;2023-04-03T09:48:18;14.70;87.60
15072;DHT22;7635;56.696;13.002;2023-04-03T09:51:00;15.10;90.20
15072;DHT22;7635;56.696;13.002;2023-04-03T09:53:34;15.40;86.00
15072;DHT22;7635;56.696;13.002;2023-04-03T09:56:04;15.20;82.20
15072;DHT22;7635;56.696;13.002;2023-04-03T09:58:37;15.10;85.60
15072;DHT22;7635;56.696;13.002;2023-04-03T10:01:06;15.00;83.30
15072;DHT22;7635;56.696;13.002;2023-04-03T10:03:35;15.20;88.30
15072;DHT22;7635;56.696;13.002;2023-04-03T10:06:03;15.40;84.50
15072;DHT22;7635;56.696;13.002;2023-04-03T10:08:34;15.50;83.00
15072;DHT22;7635;56.696;13.002;2023-04-03T10:11:12;15.20;83.70
15072;DHT22;7635;56.696;13.002;2023-04-03T10:13:55;15.10;82.20
15072;DHT22;7635;56.696;13.002;2023-04-03T10:16:27;15.10;81.70
15072;DHT22;7635;56.696;13.002;2023-04-03T10:19:06;15.10;82.90
15072;DHT22;7635;56.696;13.002;2023-04-03T10:21:40;15.00;81.60
15072;DHT22;7635;56.696;13.002;2023-04-03T10:24:11;15.20;84.10
15072;DHT22;7635;56.696;13.002;2023-04-03T10:26:45;15.20;81.60
15072;DHT22;7635;56.696;13.002;2023-04-03T10:29:29;15.10;81.70
15072;DHT22;7635;56.696;13.002;2023-04-03T10:32:02;14.90;78.00
15072;DHT22;7635;56.696;13.002;2023-04-03T10:34:38;14.70;81.50
15072;DHT22;7635;56.696;13.002;2023-04-03T10:37:17;14.80;83.00
15072;DHT22;7635;56.696;13.002;2023-04-03T10:39:52;15.20;84.30
15072;DHT22;7635;56.696;13.002;2023-04-03T10:42:25;15.10;82.50
15072;DHT22;7635;56.696;13.002;2023-04-03T10:45:07;15.20;81.90
15072;DHT22;7635;56.696;13.002;2023-04-03T10:47:40;15.40;82.50
15072;DHT22;7635;56.696;13.002;2023-04-03T10:50:26;15.30;81.60
15072;DHT22;7635;56.696;13.002;2023-04-03T10:52:57;15.40;83.00
15072;DHT22;7635;56.696;13.002;2023-04-03T10:55:34;15.30;81.30
15072;DHT22;7635;56.696;13.002;2023-04-03T10:58:03;15.20;82.30
15072;DHT22;7635;56.696;13.002;2023-04-03T11:00:36;15.40;80.70
15072;DHT22;7635;56.696;13.002;2023-04-03T11:03:08;15.20;80.40
15072;DHT22;7635;56.696;13.002;2023-04-03T11:05:42;15.20;83.70
15072;DHT22;7635;56.696;13.002;2023-04-03T11:08:15;15.10;80.50
15072;DHT22;7635;56.696;13.002;2023-04-03T11:10:47;15.10;80.70
15072;DHT22;7635;56.696;13.002;2023-04-03T11:13:18;15.20;81.40
15072;DHT22;7635;56.696;13.002;2023-04-03T11:15:48;15.40;81.80
15072;DHT22;7635;56.696;13.002;2023-04-03T11:18:18;15.50;81.00
15072;DHT22;7635;56.696;13.002;2023-04-03T11:20:52;15.60;83.30
15072;DHT22;7635;56.696;13.002;2023-04-03T11:23:23;15.50;80.30
15072;DHT22;7635;56.696;13.002;2023-04-03T11:25:53;15.30;81.70
15072;DHT22;7635;56.696;13.002;2023-04-03T11:28:21;15.10;79.80
15072;DHT22;7635;56.696;13.002;2023-04-03T11:30:53;14.90;78.50
15072;DHT22;7635;56.696;13.002;2023-04-03T11:33:32;14.90;79.60
15072;DHT22;7635;56.696;13.002;2023-04-03T11:36:07;14.80;82.50
15072;DHT22;7635;56.696;13.002;2023-04-03T11:38:37;14.80;80.70
15072;DHT22;7635;56.696;13.002;2023-04-03T11:41:07;14.80;81.00
15072;DHT22;7635;56.696;13.002;2023-04-03T11:43:40;14.90;82.00
15072;DHT22;7635;56.696;13.002;2023-04-03T11:46:09;14.90;81.10
15072;DHT22;7635;56.696;13.002;2023-04-03T11:48:50;14.80;82.00
15072;DHT22;7635;56.696;13.002;2023-04-03T11:51:45;15.10;81.80
15072;DHT22;7635;56.696;13.002;2023-04-03T11:54:35;14.70;80.40
15072;DHT22;7635;56.696;13.002;2023-04-03T12:09:26;14.80;80.90
15072;DHT22;7635;56.696;13.002;2023-04-03T12:11:55;14.50;78.70
15072;DHT22;7635;56.696;13.002;2023-04-03T12:14:24;14.30;80.60
15072;DHT22;7635;56.696;13.002;2023-04-03T12:16:52;14.30;82.40
15072;DHT22;7635;56.696;13.002;2023-04-03T12:19:35;14.50;83.00
15072;DHT22;7635;56.696;13.002;2023-04-03T12:22:16;14.50;79.80
15072;DHT22;7635;56.696;13.002;2023-04-03T12:24:46;14.50;81.10
15072;DHT22;7635;56.696;13.002;2023-04-03T12:27:30;14.40;82.90
15072;DHT22;7635;56.696;13.002;2023-04-03T12:30:12;14.10;80.80
15072;DHT22;7635;56.696;13.002;2023-04-03T12:33:13;13.90;82.70
15072;DHT22;7635;56.696;13.002;2023-04-03T12:35:54;13.80;82.30
15072;DHT22;7635;56.696;13.002;2023-04-03T12:38:46;13.60;81.80
15072;DHT22;7635;56.696;13.002;2023-04-03T12:41:25;13.40;80.70
15072;DHT22;7635;56.696;13.002;2023-04-03T12:46:50;13.30;84.90
15072;DHT22;7635;56.696;13.002;2023-04-03T12:49:33;13.20;84.30
15072;DHT22;7635;56.696;13.002;2023-04-03T12:52:04;13.20;81.40
15072;DHT22;7635;56.696;13.002;2023-04-03T12:54:35;13.30;84.20
15072;DHT22;7635;56.696;13.002;2023-04-03T12:57:12;13.40;82.80
15072;DHT22;7635;56.696;13.002;2023-04-03T12:59:43;13.20;83.80
15072;DHT22;7635;56.696;13.002;2023-04-03T13:02:22;12.90;83.60
15072;DHT22;7635;56.696;13.002;2023-04-03T13:04:50;12.70;84.00
15072;DHT22;7635;56.696;13.002;2023-04-03T13:07:24;12.50;82.80
15072;DHT22;7635;56.696;13.002;2023-04-03T13:09:59;12.20;82.30
15072;DHT22;7635;56.696;13.002;2023-04-03T13:12:26;12.10;85.50
15072;DHT22;7635;56.696;13.002;2023-04-03T13:14:56;12.00;83.20
15072;DHT22;7635;56.696;13.002;2023-04-03T13:17:24;12.00;84.30
15072;DHT22;7635;56.696;13.002;2023-04-03T13:19:52;12.00;86.00
15072;DHT22;7635;56.696;13.002;2023-04-03T13:22:27;12.10;86.50
15072;DHT22;7635;56.696;13.002;2023-04-03T13:24:58;12.00;83.80
15072;DHT22;7635;56.696;13.002;2023-04-03T13:27:26;11.90;86.30
15072;DHT22;7635;56.696;13.002;2023-04-03T13:29:57;11.70;84.30
15072;DHT22;7635;56.696;13.002;2023-04-03T13:32:27;11.60;84.50
15072;DHT22;7635;56.696;13.002;2023-04-03T13:34:55;11.50;83.70
15072;DHT22;7635;56.696;13.002;2023-04-03T13:37:25;11.50;85.80
15072;DHT22;7635;56.696;13.002;2023-04-03T13:40:01;11.50;85.00
15072;DHT22;7635;56.696;13.002;2023-04-03T13:42:31;11.50;86.30
15072;DHT22;7635;56.696;13.002;2023-04-03T13:45:26;11.50;84.80
15072;DHT22;7635;56.696;13.002;2023-04-03T13:48:08;11.40;84.60
15072;DHT22;7635;56.696;13.002;2023-04-03T13:50:51;11.20;85.20
15072;DHT22;7635;56.696;13.002;2023-04-03T13:53:20;11.10;84.00
15072;DHT22;7635;56.696;13.002;2023-04-03T13:55:56;11.00;82.60
15072;DHT22;7635;56.696;13.002;2023-04-03T13:58:24;10.90;84.10
15072;DHT22;7635;56.696;13.002;2023-04-03T14:00:54;10.80;84.10
15072;DHT22;7635;56.696;13.002;2023-04-03T14:03:22;10.80;83.80
15072;DHT22;7635;56.696;13.002;2023-04-03T14:05:50;10.80;85.30
15072;DHT22;7635;56.696;13.002;2023-04-03T14:08:19;10.60;83.10
15072;DHT22;7635;56.696;13.002;2023-04-03T14:10:46;10.50;82.20
15072;DHT22;7635;56.696;13.002;2023-04-03T14:13:16;10.50;81.70
15072;DHT22;7635;56.696;13.002;2023-04-03T14:15:44;10.40;83.10
15072;DHT22;7635;56.696;13.002;2023-04-03T14:18:13;10.30;83.50
15072;DHT22;7635;56.696;13.002;2023-04-03T14:20:41;10.30;81.70
15072;DHT22;7635;56.696;13.002;2023-04-03T14:23:07;10.10;82.50
15072;DHT22;7635;56.696;13.002;2023-04-03T14:25:36;10.00;81.90
15072;DHT22;7635;56.696;13.002;2023-04-03T14:28:14;10.00;85.40
15072;DHT22;7635;56.696;13.002;2023-04-03T14:30:40;10.00;85.30
15072;DHT22;7635;56.696;13.002;2023-04-03T14:33:11;10.10;87.20
15072;DHT22;7635;56.696;13.002;2023-04-03T14:35:39;10.20;88.30
15072;DHT22;7635;56.696;13.002;2023-04-03T14:38:20;10.20;86.80
15072;DHT22;7635;56.696;13.002;2023-04-03T14:40:49;10.20;85.70
15072;DHT22;7635;56.696;13.002;2023-04-03T14:43:16;10.10;84.50
15072;DHT22;7635;56.696;13.002;2023-04-03T14:45:43;10.00;84.70
15072;DHT22;7635;56.696;13.002;2023-04-03T14:48:17;9.90;84.50
15072;DHT22;7635;56.696;13.002;2023-04-03T14:50:44;9.80;83.80
15072;DHT22;7635;56.696;13.002;2023-04-03T14:53:11;9.80;86.00
15072;DHT22;7635;56.696;13.002;2023-04-03T14:55:40;9.70;83.70
15072;DHT22;7635;56.696;13.002;2023-04-03T14:58:12;9.70;86.20
15072;DHT22;7635;56.696;13.002;2023-04-03T15:00:46;9.70;84.00
15072;DHT22;7635;56.696;13.002;2023-04-03T15:03:14;9.60;85.60
15072;DHT22;7635;56.696;13.002;2023-04-03T15:05:42;9.60;86.10
15072;DHT22;7635;56.696;13.002;2023-04-03T15:08:18;9.60;85.30
15072;DHT22;7635;56.696;13.002;2023-04-03T15:10:46;9.50;84.60
15072;DHT22;7635;56.696;13.002;2023-04-03T15:13:14;9.50;85.40
15072;DHT22;7635;56.696;13.002;2023-04-03T15:15:42;9.40;85.00
15072;DHT22;7635;56.696;13.002;2023-04-03T15:18:13;9.40;83.60
15072;DHT22;7635;56.696;13.002;2023-04-03T15:20:41;9.30;84.20
15072;DHT22;7635;56.696;13.002;2023-04-03T15:23:09;9.30;85.00
15072;DHT22;7635;56.696;13.002;2023-04-03T15:25:36;9.20;84.70
15072;DHT22;7635;56.696;13.002;2023-04-03T15:28:03;9.20;86.30
15072;DHT22;7635;56.696;13.002;2023-04-03T15:30:31;9.10;87.60
15072;DHT22;7635;56.696;13.002;2023-04-03T15:32:58;9.10;85.60
15072;DHT22;7635;56.696;13.002;2023-04-03T15:35:25;9.10;84.50
15072;DHT22;7635;56.696;13.002;2023-04-03T15:37:52;9.00;83.70
15072;DHT22;7635;56.696;13.002;2023-04-03T15:40:19;9.00;85.40
15072;DHT22;7635;56.696;13.002;2023-04-03T15:42:45;9.00;85.70
15072;DHT22;7635;56.696;13.002;2023-04-03T15:45:12;8.90;85.20
15072;DHT22;7635;56.696;13.002;2023-04-03T15:47:41;8.90;85.10
15072;DHT22;7635;56.696;13.002;2023-04-03T15:50:09;8.90;86.50
15072;DHT22;7635;56.696;13.002;2023-04-03T15:52:36;8.90;84.60
15072;DHT22;7635;56.696;13.002;2023-04-03T15:55:03;8.80;84.70
15072;DHT22;7635;56.696;13.002;2023-04-03T15:57:30;8.80;85.60
15072;DHT22;7635;56.696;13.002;2023-04-03T15:59:57;8.70;85.70
15072;DHT22;7635;56.696;13.002;2023-04-03T16:02:23;8.70;86.80
15072;DHT22;7635;56.696;13.002;2023-04-03T16:04:54;8.70;86.30
15072;DHT22;7635;56.696;13.002;2023-04-03T16:07:21;8.60;85.50
15072;DHT22;7635;56.696;13.002;2023-04-03T16:09:48;8.50;86.80
15072;DHT22;7635;56.696;13.002;2023-04-03T16:12:14;8.50;86.10
15072;DHT22;7635;56.696;13.002;2023-04-03T16:14:41;8.40;85.60
15072;DHT22;7635;56.696;13.002;2023-04-03T16:17:08;8.40;87.10
15072;DHT22;7635;56.696;13.002;2023-04-03T16:19:35;8.40;85.90
15072;DHT22;7635;56.696;13.002;2023-04-03T16:22:03;8.40;85.10
15072;DHT22;7635;56.696;13.002;2023-04-03T16:24:30;8.30;85.50
15072;DHT22;7635;56.696;13.002;2023-04-03T16:26:57;8.30;87.40